Time;durP1;ratioP1;P1;durP2;ratioP2;P2;SDS_P1;SDS_P2;PMS_P1;PMS_P2;Temp;Humidity;BMP_temperature;BMP_pressure;BME280_temperature;BME280_humidity;BME280_pressure;Samples;Min_cycle;Max_cycle;Signal;HPM_P1;HPM_P2
2022/05/20 00:00:47;;;;;;;33.10;22.03;;;13.60;99.90;;;;;;5049426;28;20196;-63
2022/05/20 00:03:15;;;;;;;31.63;22.00;;;13.60;99.90;;;;;;5050048;28;20197;-64
2022/05/20 00:05:44;;;;;;;31.50;22.47;;;13.60;99.90;;;;;;5076978;28;20185;-64
2022/05/20 00:08:12;;;;;;;32.27;23.07;;;13.60;99.90;;;;;;5046297;28;20289;-63
2022/05/20 00:10:41;;;;;;;35.07;22.87;;;13.50;99.90;;;;;;5049047;28;20656;-63
2022/05/20 00:13:10;;;;;;;31.60;21.23;;;13.50;99.90;;;;;;5045987;28;20208;-64
2022/05/20 00:15:39;;;;;;;27.90;20.67;;;13.50;99.90;;;;;;5043814;28;20196;-64
2022/05/20 00:18:08;;;;;;;31.27;21.93;;;13.40;99.90;;;;;;5050010;28;20202;-64
2022/05/20 00:20:36;;;;;;;30.37;21.70;;;13.50;99.90;;;;;;5047517;28;20193;-63
2022/05/20 00:23:05;;;;;;;31.10;21.13;;;13.40;99.90;;;;;;5046154;28;20189;-64
2022/05/20 00:25:48;;;;;;;32.33;22.07;;;13.30;99.90;;;;;;5046413;28;20196;-63
2022/05/20 00:28:20;;;;;;;35.90;23.73;;;13.40;99.90;;;;;;5075846;28;20670;-64
2022/05/20 00:30:50;;;;;;;42.87;25.93;;;13.40;99.90;;;;;;5035190;28;20228;-63
2022/05/20 00:33:19;;;;;;;47.07;27.27;;;13.40;99.90;;;;;;5060338;28;20201;-63
2022/05/20 00:35:48;;;;;;;42.90;27.73;;;13.40;99.90;;;;;;5047974;28;20248;-63
2022/05/20 00:38:17;;;;;;;50.77;31.30;;;13.40;99.90;;;;;;5046014;28;20193;-63
2022/05/20 00:40:46;;;;;;;55.90;32.37;;;13.40;99.90;;;;;;5080670;28;20191;-64
2022/05/20 00:43:23;;;;;;;54.20;31.00;;;13.40;99.90;;;;;;5049800;28;20277;-64
2022/05/20 00:45:52;;;;;;;55.63;33.20;;;13.40;99.90;;;;;;5047133;28;20287;-63
2022/05/20 00:48:21;;;;;;;53.77;32.03;;;13.40;99.90;;;;;;5047695;28;20201;-64
2022/05/20 00:50:55;;;;;;;58.83;33.43;;;13.40;99.90;;;;;;5049308;28;20205;-63
2022/05/20 00:53:29;;;;;;;52.00;30.67;;;13.40;99.90;;;;;;5078755;28;20198;-64
2022/05/20 00:55:57;;;;;;;58.37;32.90;;;13.40;99.90;;;;;;5048073;28;20211;-63
2022/05/20 00:58:29;;;;;;;53.37;32.43;;;13.40;99.90;;;;;;5049194;28;20196;-63
2022/05/20 01:00:57;;;;;;;51.87;32.03;;;13.40;99.90;;;;;;5046088;28;20207;-63
2022/05/20 01:03:28;;;;;;;48.27;30.13;;;13.30;99.90;;;;;;5047360;28;20201;-63
2022/05/20 01:05:58;;;;;;;62.23;36.50;;;13.30;99.90;;;;;;5046284;28;20537;-63
2022/05/20 01:08:29;;;;;;;70.40;39.33;;;13.40;99.90;;;;;;5046356;28;20219;-64
2022/05/20 01:10:57;;;;;;;63.50;35.93;;;13.30;99.90;;;;;;5046653;28;20218;-64
2022/05/20 01:13:30;;;;;;;74.00;38.60;;;13.30;99.90;;;;;;5044666;28;20208;-64
2022/05/20 01:16:02;;;;;;;72.93;39.03;;;13.30;99.90;;;;;;5048352;28;20304;-63
2022/05/20 01:18:35;;;;;;;72.10;37.77;;;13.30;99.90;;;;;;5046896;28;20280;-63
2022/05/20 01:21:04;;;;;;;73.37;40.40;;;13.30;99.90;;;;;;5046580;28;20197;-63
2022/05/20 01:23:36;;;;;;;70.80;39.57;;;13.30;99.90;;;;;;5040695;28;20193;-64
2022/05/20 01:26:05;;;;;;;77.03;41.23;;;13.30;99.90;;;;;;5043255;28;20195;-63
2022/05/20 01:28:35;;;;;;;74.67;40.10;;;13.40;99.90;;;;;;5051530;28;20196;-63
2022/05/20 01:31:06;;;;;;;72.57;39.83;;;13.40;99.90;;;;;;5047627;28;20296;-63
2022/05/20 01:33:37;;;;;;;75.73;40.47;;;13.40;99.90;;;;;;5047404;28;20193;-62
2022/05/20 01:36:08;;;;;;;72.77;39.63;;;13.40;99.90;;;;;;5047196;28;20230;-63
2022/05/20 01:38:38;;;;;;;78.60;42.77;;;13.40;99.90;;;;;;5050500;28;20201;-63
2022/05/20 01:41:10;;;;;;;77.03;41.07;;;13.30;99.90;;;;;;5049516;28;20193;-63
2022/05/20 01:43:53;;;;;;;80.40;41.97;;;13.40;99.90;;;;;;5046640;28;20192;-64
2022/05/20 01:46:35;;;;;;;72.83;37.67;;;13.40;99.90;;;;;;5049940;28;20522;-64
2022/05/20 01:49:17;;;;;;;67.50;38.07;;;13.40;99.90;;;;;;5044739;28;20224;-64
2022/05/20 01:51:50;;;;;;;72.87;39.13;;;13.40;99.90;;;;;;5048351;28;20303;-63
2022/05/20 01:54:28;;;;;;;74.90;40.80;;;13.40;99.90;;;;;;5042704;28;20197;-64
2022/05/20 01:57:02;;;;;;;68.87;39.73;;;13.40;99.90;;;;;;5046756;28;20193;-63
2022/05/20 01:59:36;;;;;;;72.20;38.20;;;13.40;99.90;;;;;;5041935;28;20274;-63
2022/05/20 02:02:09;;;;;;;70.63;37.90;;;13.40;99.90;;;;;;5046379;28;20193;-63
2022/05/20 02:04:43;;;;;;;70.40;38.77;;;13.30;99.90;;;;;;5050675;28;20197;-63
2022/05/20 02:07:18;;;;;;;80.63;41.73;;;13.40;99.90;;;;;;5051923;28;20204;-64
2022/05/20 02:09:54;;;;;;;83.00;43.33;;;13.40;99.90;;;;;;5055417;28;20201;-63
2022/05/20 02:12:26;;;;;;;81.27;41.63;;;13.40;99.90;;;;;;5050633;28;20299;-63
2022/05/20 02:15:01;;;;;;;82.87;44.00;;;13.50;99.90;;;;;;5080395;28;20196;-64
2022/05/20 02:17:34;;;;;;;76.83;42.67;;;13.50;99.90;;;;;;5044437;28;20192;-63
2022/05/20 02:20:08;;;;;;;78.97;43.63;;;13.50;99.90;;;;;;5076212;28;20192;-63
2022/05/20 02:22:42;;;;;;;84.77;43.40;;;13.60;99.90;;;;;;5051881;28;20658;-63
2022/05/20 02:25:16;;;;;;;87.70;44.93;;;13.60;99.90;;;;;;5049141;28;20196;-63
2022/05/20 02:27:49;;;;;;;78.97;42.43;;;13.60;99.90;;;;;;5052335;28;20196;-63
2022/05/20 02:30:20;;;;;;;79.13;42.10;;;13.70;99.90;;;;;;5052531;28;20196;-64
2022/05/20 02:32:52;;;;;;;85.63;43.53;;;13.70;99.90;;;;;;5055527;28;20220;-63
2022/05/20 02:35:21;;;;;;;75.87;42.00;;;13.80;99.90;;;;;;5048004;28;20236;-64
2022/05/20 02:37:51;;;;;;;77.03;41.33;;;13.80;99.90;;;;;;5052252;28;20274;-63
2022/05/20 02:40:22;;;;;;;74.10;42.27;;;13.80;99.90;;;;;;5050338;28;20190;-63
2022/05/20 02:42:50;;;;;;;80.93;43.73;;;13.80;99.90;;;;;;5044397;28;20219;-63
2022/05/20 02:45:19;;;;;;;81.40;43.90;;;13.90;99.90;;;;;;5049358;28;20216;-63
2022/05/20 02:47:47;;;;;;;89.43;44.47;;;13.90;99.90;;;;;;5052761;28;20196;-64
2022/05/20 02:50:15;;;;;;;80.57;43.27;;;13.90;99.90;;;;;;5082605;28;20280;-64
2022/05/20 02:52:44;;;;;;;78.57;42.40;;;14.00;99.90;;;;;;5053019;28;20307;-63
2022/05/20 02:55:12;;;;;;;70.00;39.13;;;13.90;99.90;;;;;;5047711;28;20224;-64
2022/05/20 02:57:44;;;;;;;71.00;38.40;;;13.90;99.90;;;;;;5055596;28;20196;-64
2022/05/20 03:05:46;;;;;;;71.40;40.47;;;13.90;99.90;;;;;;5050698;28;20266;-64
2022/05/20 03:08:14;;;;;;;70.87;40.30;;;13.90;99.90;;;;;;5050344;28;20235;-64
2022/05/20 03:10:42;;;;;;;83.37;41.97;;;14.00;99.90;;;;;;5043120;28;20204;-63
2022/05/20 03:13:12;;;;;;;77.10;41.17;;;14.00;99.90;;;;;;5056750;28;20219;-63
2022/05/20 03:15:41;;;;;;;78.17;41.97;;;14.00;99.90;;;;;;5048222;28;20399;-63
2022/05/20 03:18:11;;;;;;;75.73;40.37;;;14.00;99.90;;;;;;5050549;28;20269;-64
2022/05/20 03:20:41;;;;;;;75.47;42.03;;;13.90;99.90;;;;;;5046777;28;20195;-63
2022/05/20 03:23:10;;;;;;;77.03;41.27;;;13.90;99.90;;;;;;5047375;28;20197;-63
2022/05/20 03:25:39;;;;;;;75.60;40.93;;;13.90;99.90;;;;;;5082418;28;20193;-63
2022/05/20 03:28:13;;;;;;;66.03;37.60;;;13.80;99.90;;;;;;5049117;28;20656;-64
2022/05/20 03:30:41;;;;;;;64.97;37.30;;;13.80;99.90;;;;;;5049649;28;20192;-64
2022/05/20 03:33:11;;;;;;;60.83;36.73;;;13.70;99.90;;;;;;5050065;28;20213;-64
2022/05/20 03:35:39;;;;;;;68.13;37.70;;;13.70;99.90;;;;;;5050109;28;20228;-64
2022/05/20 03:38:08;;;;;;;74.17;39.63;;;13.70;99.90;;;;;;5054797;28;20291;-64
2022/05/20 03:40:36;;;;;;;71.83;38.10;;;13.70;99.90;;;;;;5049331;28;20188;-63
2022/05/20 03:43:05;;;;;;;70.33;38.57;;;13.70;99.90;;;;;;5047055;28;20180;-63
2022/05/20 03:45:35;;;;;;;69.47;40.27;;;13.70;99.90;;;;;;5049076;28;20219;-64
2022/05/20 03:48:04;;;;;;;71.13;40.00;;;13.70;99.90;;;;;;5049878;28;20223;-64
2022/05/20 03:50:32;;;;;;;77.40;42.07;;;13.70;99.90;;;;;;5048838;28;20217;-63
2022/05/20 03:53:00;;;;;;;76.07;42.80;;;13.60;99.90;;;;;;5050090;28;20214;-63
2022/05/20 03:55:29;;;;;;;77.20;42.47;;;13.60;99.90;;;;;;5048029;28;20196;-64
2022/05/20 03:57:57;;;;;;;79.67;44.47;;;13.70;99.90;;;;;;5032239;28;20188;-64
2022/05/20 04:00:26;;;;;;;81.37;44.93;;;13.70;99.90;;;;;;5043354;28;20283;-63
2022/05/20 04:03:14;;;;;;;79.47;43.60;;;13.70;99.90;;;;;;5047860;28;20275;-63
2022/05/20 04:05:45;;;;;;;76.83;43.87;;;13.70;99.90;;;;;;5030934;28;20193;-63
2022/05/20 04:08:13;;;;;;;79.73;43.83;;;13.80;99.90;;;;;;5045590;28;20207;-64
2022/05/20 04:10:42;;;;;;;78.63;43.07;;;13.80;99.90;;;;;;5049332;28;20192;-63
2022/05/20 04:13:10;;;;;;;76.53;41.83;;;13.90;99.90;;;;;;5048301;28;20205;-64
2022/05/20 04:15:38;;;;;;;79.27;42.40;;;13.90;99.90;;;;;;5048674;28;20201;-63
2022/05/20 04:18:07;;;;;;;74.57;42.27;;;13.90;99.90;;;;;;5082132;28;20676;-64
2022/05/20 04:20:36;;;;;;;75.43;41.70;;;13.90;99.90;;;;;;5046411;28;20209;-63
2022/05/20 04:23:05;;;;;;;77.10;42.47;;;13.90;99.90;;;;;;5048282;28;20323;-63
2022/05/20 04:25:33;;;;;;;76.47;42.10;;;13.90;99.90;;;;;;5045683;28;20215;-63
2022/05/20 04:28:01;;;;;;;79.47;42.43;;;13.90;99.90;;;;;;5049214;28;20198;-63
2022/05/20 04:30:30;;;;;;;72.87;43.10;;;13.90;99.90;;;;;;5048139;28;20231;-63
2022/05/20 04:32:58;;;;;;;77.20;43.80;;;13.90;99.90;;;;;;5047655;28;20215;-63
2022/05/20 04:35:27;;;;;;;75.37;42.17;;;13.90;99.90;;;;;;5048984;28;20240;-63
2022/05/20 04:37:56;;;;;;;78.83;43.53;;;13.80;99.90;;;;;;5050963;28;20207;-63
2022/05/20 04:40:24;;;;;;;79.10;43.93;;;13.80;99.90;;;;;;5049502;28;20300;-64
2022/05/20 04:48:25;;;;;;;80.03;44.57;;;13.90;99.90;;;;;;5050671;28;20202;-63
2022/05/20 04:50:53;;;;;;;70.27;41.37;;;13.90;99.90;;;;;;5047691;28;20193;-63
2022/05/20 04:56:09;;;;;;;71.40;43.13;;;14.00;99.90;;;;;;5049778;28;20201;-64
2022/05/20 04:58:37;;;;;;;73.00;43.47;;;14.10;99.90;;;;;;5048200;28;20208;-63
2022/05/20 05:01:06;;;;;;;73.50;41.53;;;14.10;99.90;;;;;;5046507;28;20259;-64
2022/05/20 05:03:35;;;;;;;69.10;41.73;;;14.20;99.90;;;;;;5073091;28;20187;-64
2022/05/20 05:06:03;;;;;;;66.80;40.50;;;14.20;99.90;;;;;;5071708;28;20211;-64
2022/05/20 05:08:33;;;;;;;70.80;41.63;;;14.20;99.90;;;;;;5073773;28;20188;-63
2022/05/20 05:11:02;;;;;;;64.10;40.67;;;14.30;99.90;;;;;;5045244;28;20807;-64
2022/05/20 05:13:30;;;;;;;68.57;41.17;;;14.40;99.90;;;;;;5044604;28;20679;-64
2022/05/20 05:15:59;;;;;;;70.13;41.30;;;14.50;99.90;;;;;;5043154;28;20200;-64
2022/05/20 05:18:27;;;;;;;65.33;40.63;;;14.60;99.90;;;;;;5050936;28;20680;-64
2022/05/20 05:20:55;;;;;;;71.17;42.07;;;14.80;99.90;;;;;;5047843;28;20208;-64
2022/05/20 05:23:24;;;;;;;72.33;42.33;;;14.90;99.90;;;;;;5048556;28;20238;-64
2022/05/20 05:25:54;;;;;;;69.37;41.70;;;14.90;99.90;;;;;;5044328;28;20213;-64
2022/05/20 05:28:23;;;;;;;68.90;40.80;;;15.00;99.90;;;;;;5049457;28;20729;-64
2022/05/20 05:30:53;;;;;;;64.70;38.50;;;15.10;99.90;;;;;;5039963;28;20202;-64
2022/05/20 05:33:22;;;;;;;65.33;41.13;;;15.20;99.90;;;;;;5042966;28;20335;-64
2022/05/20 05:35:51;;;;;;;65.83;41.13;;;15.20;99.90;;;;;;5042466;28;20310;-64
2022/05/20 05:38:24;;;;;;;62.47;39.70;;;15.30;99.90;;;;;;5047474;28;20225;-64
2022/05/20 05:40:55;;;;;;;68.87;39.97;;;15.40;99.90;;;;;;5027229;28;20648;-64
2022/05/20 05:43:23;;;;;;;68.80;40.23;;;15.50;99.90;;;;;;5047359;28;20192;-64
2022/05/20 05:45:52;;;;;;;58.43;39.03;;;15.60;99.90;;;;;;5046066;28;20556;-64
2022/05/20 05:48:21;;;;;;;62.00;39.07;;;15.80;99.90;;;;;;5057886;28;20696;-64
2022/05/20 05:50:50;;;;;;;60.97;38.00;;;16.00;99.90;;;;;;5045001;28;20193;-64
2022/05/20 05:53:21;;;;;;;54.30;37.50;;;16.10;99.90;;;;;;5081642;28;20209;-64
2022/05/20 05:55:57;;;;;;;57.87;36.80;;;16.20;99.90;;;;;;5047298;28;20541;-64
2022/05/20 05:58:26;;;;;;;57.20;38.57;;;16.20;99.90;;;;;;5048319;28;20211;-64
2022/05/20 06:00:55;;;;;;;59.07;36.23;;;16.40;99.90;;;;;;5051404;28;20521;-65
2022/05/20 06:03:24;;;;;;;59.40;35.90;;;16.50;99.90;;;;;;5051340;28;20193;-64
2022/05/20 06:05:53;;;;;;;54.00;36.23;;;16.60;99.90;;;;;;5047229;28;20196;-64
2022/05/20 06:08:24;;;;;;;53.17;34.50;;;16.70;99.90;;;;;;5049871;28;20207;-64
2022/05/20 06:11:01;;;;;;;53.03;33.93;;;16.80;99.90;;;;;;5052290;28;20283;-64
2022/05/20 06:13:31;;;;;;;57.17;34.93;;;16.90;99.90;;;;;;5052208;28;20218;-64
2022/05/20 06:16:02;;;;;;;50.83;33.50;;;16.90;99.90;;;;;;5052333;28;20540;-64
2022/05/20 06:18:30;;;;;;;48.03;33.07;;;16.80;99.90;;;;;;5054850;28;20199;-64
2022/05/20 06:20:58;;;;;;;50.67;33.57;;;16.80;99.90;;;;;;5052453;28;20207;-64
2022/05/20 06:23:27;;;;;;;52.77;33.43;;;16.90;99.90;;;;;;5050964;28;20565;-64
2022/05/20 06:25:58;;;;;;;53.00;33.10;;;17.00;99.90;;;;;;5045971;28;20200;-64
2022/05/20 06:28:45;;;;;;;48.60;32.00;;;17.10;99.90;;;;;;5053570;28;20202;-64
2022/05/20 06:31:13;;;;;;;45.87;31.90;;;17.40;99.90;;;;;;5052243;28;20652;-64
2022/05/20 06:33:42;;;;;;;48.97;30.13;;;17.60;99.90;;;;;;5051655;28;20625;-64
2022/05/20 06:41:51;;;;;;;45.47;28.93;;;18.00;99.90;;;;;;5042593;28;20672;-64
2022/05/20 06:44:21;;;;;;;43.73;29.60;;;18.10;99.90;;;;;;5051608;28;20251;-64
2022/05/20 06:46:49;;;;;;;40.70;29.13;;;18.10;99.90;;;;;;5046888;28;20205;-64
2022/05/20 06:49:20;;;;;;;39.60;28.50;;;18.10;99.90;;;;;;5045295;28;20614;-64
2022/05/20 06:51:50;;;;;;;41.83;27.60;;;18.20;99.90;;;;;;5053119;28;20255;-64
2022/05/20 06:54:18;;;;;;;36.67;26.63;;;18.20;99.90;;;;;;5048448;28;20274;-64
2022/05/20 06:56:47;;;;;;;38.97;27.27;;;18.20;99.90;;;;;;5052444;28;20197;-64
2022/05/20 06:59:15;;;;;;;42.07;28.77;;;18.20;99.90;;;;;;5049760;28;20649;-64
2022/05/20 07:01:45;;;;;;;39.60;27.23;;;18.30;99.90;;;;;;5047814;28;20201;-64
2022/05/20 07:04:33;;;;;;;42.00;28.00;;;18.30;99.90;;;;;;5057017;28;20193;-64
2022/05/20 07:07:05;;;;;;;42.33;27.97;;;18.20;99.90;;;;;;5052660;28;20197;-65
2022/05/20 07:09:34;;;;;;;43.67;29.33;;;18.20;99.90;;;;;;5035308;28;20200;-64
2022/05/20 07:12:03;;;;;;;45.37;30.33;;;18.10;99.90;;;;;;5055113;28;20236;-64
2022/05/20 07:14:32;;;;;;;49.20;28.77;;;18.10;99.90;;;;;;5052052;28;20270;-64
2022/05/20 07:17:03;;;;;;;44.60;29.23;;;18.10;99.90;;;;;;5058116;28;20204;-64
2022/05/20 07:19:32;;;;;;;42.60;27.93;;;18.30;99.90;;;;;;5047628;28;20181;-64
2022/05/20 07:22:01;;;;;;;41.70;26.53;;;18.30;99.90;;;;;;5049374;28;20196;-64
2022/05/20 07:24:29;;;;;;;42.10;27.90;;;18.40;99.90;;;;;;5050546;28;20189;-64
2022/05/20 07:26:57;;;;;;;41.53;29.13;;;18.50;99.90;;;;;;5054541;28;20221;-64
2022/05/20 07:29:26;;;;;;;41.27;29.27;;;18.60;99.90;;;;;;5052297;28;20279;-64
2022/05/20 07:32:00;;;;;;;42.47;29.37;;;18.50;99.90;;;;;;5057784;28;20227;-64
2022/05/20 07:34:30;;;;;;;42.07;28.77;;;18.50;99.90;;;;;;5064121;28;20229;-64
2022/05/20 07:36:59;;;;;;;45.40;30.33;;;18.40;99.90;;;;;;5047352;28;20435;-64
2022/05/20 07:39:27;;;;;;;50.20;31.00;;;18.30;99.90;;;;;;5059212;28;20287;-64
2022/05/20 07:41:56;;;;;;;41.77;28.93;;;18.30;99.90;;;;;;5049368;28;20666;-64
2022/05/20 07:44:24;;;;;;;41.00;28.67;;;18.20;99.90;;;;;;5051841;28;20224;-64
2022/05/20 07:46:53;;;;;;;44.87;30.73;;;18.20;99.90;;;;;;5056675;28;20203;-64
2022/05/20 07:49:22;;;;;;;42.23;29.53;;;18.20;99.90;;;;;;5083305;28;20212;-64
2022/05/20 07:51:57;;;;;;;41.77;28.80;;;18.20;99.90;;;;;;5050785;28;20205;-64
2022/05/20 07:54:27;;;;;;;43.60;29.60;;;18.40;99.90;;;;;;5048136;28;20216;-64
2022/05/20 07:57:00;;;;;;;43.57;28.60;;;18.50;99.90;;;;;;5038036;28;20213;-64
2022/05/20 07:59:33;;;;;;;44.90;28.40;;;18.70;99.90;;;;;;5049066;28;20657;-64
2022/05/20 08:02:02;;;;;;;40.97;28.57;;;18.90;99.90;;;;;;5049552;28;20197;-64
2022/05/20 08:07:21;;;;;;;43.37;26.23;;;19.50;99.90;;;;;;5054373;28;20197;-64
2022/05/20 08:09:50;;;;;;;40.33;27.30;;;19.70;99.90;;;;;;5041848;28;20203;-64
2022/05/20 08:12:18;;;;;;;40.97;27.47;;;19.80;99.90;;;;;;5048382;28;20201;-64
2022/05/20 08:14:48;;;;;;;43.83;28.47;;;19.90;99.90;;;;;;5051397;28;20225;-64
2022/05/20 08:17:20;;;;;;;41.13;27.87;;;20.10;99.90;;;;;;5082407;28;20194;-64
2022/05/20 08:19:51;;;;;;;40.27;28.77;;;20.30;99.90;;;;;;5043704;28;20197;-64
2022/05/20 08:22:23;;;;;;;34.80;26.23;;;20.50;99.90;;;;;;5051817;28;20225;-64
2022/05/20 08:24:53;;;;;;;43.03;28.00;;;20.80;99.90;;;;;;5049327;28;20220;-64
2022/05/20 08:27:23;;;;;;;43.00;27.30;;;21.20;99.90;;;;;;5051891;28;20206;-64
2022/05/20 08:29:52;;;;;;;41.13;27.30;;;21.40;99.90;;;;;;5050523;28;20735;-64
2022/05/20 08:32:21;;;;;;;41.57;27.50;;;21.40;99.90;;;;;;5066167;28;20217;-64
2022/05/20 08:34:50;;;;;;;42.07;27.90;;;21.20;99.90;;;;;;5050723;28;20334;-64
2022/05/20 08:37:20;;;;;;;42.57;28.73;;;21.00;99.90;;;;;;5050171;28;20252;-64
2022/05/20 08:39:48;;;;;;;42.27;27.87;;;20.90;99.90;;;;;;5051599;28;20197;-64
2022/05/20 08:42:28;;;;;;;43.33;28.63;;;20.80;99.90;;;;;;5045589;28;20204;-64
2022/05/20 08:44:58;;;;;;;46.37;29.30;;;20.80;99.90;;;;;;5050396;28;20193;-64
2022/05/20 08:47:32;;;;;;;41.10;27.20;;;21.00;99.90;;;;;;5049285;28;20589;-64
2022/05/20 08:50:05;;;;;;;43.00;29.00;;;21.10;99.90;;;;;;5049453;28;20208;-64
2022/05/20 08:52:35;;;;;;;40.53;27.17;;;21.20;99.90;;;;;;5049401;28;20345;-64
2022/05/20 08:55:04;;;;;;;38.67;27.77;;;21.20;99.90;;;;;;5048926;28;20227;-64
2022/05/20 08:57:46;;;;;;;42.73;29.07;;;21.00;99.90;;;;;;5045238;28;20522;-64
2022/05/20 09:00:15;;;;;;;41.43;29.03;;;20.80;99.90;;;;;;5049204;28;20281;-64
2022/05/20 09:02:44;;;;;;;42.10;28.37;;;20.70;99.90;;;;;;5050634;28;20224;-64
2022/05/20 09:05:20;;;;;;;42.43;27.27;;;20.70;99.90;;;;;;5050254;28;20236;-64
2022/05/20 09:08:00;;;;;;;46.17;29.70;;;20.80;99.90;;;;;;5047713;28;20749;-64
2022/05/20 09:10:32;;;;;;;41.83;28.20;;;20.80;99.90;;;;;;5043825;28;20691;-64
2022/05/20 09:13:13;;;;;;;42.17;28.37;;;20.90;99.90;;;;;;5051516;28;20266;-64
2022/05/20 09:15:44;;;;;;;40.17;26.20;;;20.80;99.90;;;;;;5049873;28;20243;-64
2022/05/20 09:18:18;;;;;;;39.20;27.53;;;20.80;99.90;;;;;;5054740;28;20225;-64
2022/05/20 09:20:49;;;;;;;40.70;27.80;;;20.70;99.90;;;;;;5054114;28;20639;-64
2022/05/20 09:23:21;;;;;;;43.23;29.77;;;20.60;99.90;;;;;;5054736;28;20671;-64
2022/05/20 09:26:05;;;;;;;42.67;29.30;;;20.50;99.90;;;;;;5049988;28;20185;-64
2022/05/20 09:28:40;;;;;;;45.20;29.60;;;20.40;99.90;;;;;;5060334;28;20660;-64
2022/05/20 09:31:21;;;;;;;46.03;29.53;;;20.30;99.90;;;;;;5051918;28;20724;-64
2022/05/20 09:33:55;;;;;;;43.00;29.07;;;20.40;99.90;;;;;;5048250;28;20591;-63
2022/05/20 09:36:34;;;;;;;44.40;28.10;;;20.60;99.90;;;;;;5047748;28;20240;-64
2022/05/20 09:39:15;;;;;;;44.23;28.80;;;20.80;99.90;;;;;;5057729;28;20636;-63
2022/05/20 09:41:55;;;;;;;40.17;27.90;;;21.00;99.90;;;;;;5052050;28;20555;-64
2022/05/20 09:44:25;;;;;;;45.50;28.43;;;21.00;99.90;;;;;;5058429;28;20855;-63
2022/05/20 09:46:59;;;;;;;44.40;29.80;;;21.00;99.90;;;;;;5052590;28;20551;-63
2022/05/20 09:49:38;;;;;;;45.27;29.40;;;21.00;99.90;;;;;;5053623;28;20557;-64
2022/05/20 09:52:19;;;;;;;41.87;29.27;;;21.00;99.90;;;;;;5055754;28;20786;-64
2022/05/20 09:54:57;;;;;;;47.67;30.60;;;21.10;99.90;;;;;;5054294;28;20809;-64
2022/05/20 09:57:30;;;;;;;49.70;29.93;;;20.90;99.90;;;;;;5051195;28;20199;-64
2022/05/20 10:00:05;;;;;;;47.13;30.73;;;21.00;99.90;;;;;;5059643;28;20196;-64
2022/05/20 10:02:39;;;;;;;42.80;30.63;;;20.90;99.90;;;;;;5048590;28;20200;-64
2022/05/20 10:05:15;;;;;;;44.87;29.43;;;20.90;99.90;;;;;;5082835;28;20188;-64
2022/05/20 10:07:53;;;;;;;47.20;30.87;;;21.00;99.90;;;;;;5083119;28;20193;-64
2022/05/20 10:10:35;;;;;;;47.83;31.40;;;20.90;99.90;;;;;;5053354;28;20200;-64
2022/05/20 10:13:07;;;;;;;55.53;31.90;;;20.90;99.90;;;;;;5047083;28;20231;-64
2022/05/20 10:15:41;;;;;;;45.70;32.03;;;20.90;99.90;;;;;;5047644;28;20205;-64
2022/05/20 10:18:27;;;;;;;50.03;32.20;;;20.80;99.90;;;;;;5047533;28;20263;-64
2022/05/20 10:21:01;;;;;;;53.87;34.00;;;20.70;99.90;;;;;;5046994;28;20215;-64
2022/05/20 10:23:44;;;;;;;48.60;32.67;;;20.80;99.90;;;;;;5051294;28;20567;-64
2022/05/20 10:26:25;;;;;;;52.03;33.83;;;20.90;99.90;;;;;;5047038;28;20197;-64
2022/05/20 10:34:46;;;;;;;53.03;34.13;;;20.90;99.90;;;;;;5043830;28;20233;-64
2022/05/20 10:37:23;;;;;;;55.00;35.20;;;20.80;99.90;;;;;;5049575;28;20219;-64
2022/05/20 10:40:21;;;;;;;57.00;35.27;;;20.60;99.90;;;;;;5049470;28;20199;-63
2022/05/20 10:43:05;;;;;;;58.43;35.10;;;20.40;99.90;;;;;;5048978;28;20636;-64
2022/05/20 10:48:56;;;;;;;60.50;37.13;;;20.10;99.90;;;;;;5077559;28;20224;-64
2022/05/20 10:51:45;;;;;;;67.03;39.13;;;19.90;99.90;;;;;;5051091;28;20205;-64
2022/05/20 10:54:54;;;;;;;70.53;40.73;;;19.70;99.90;;;;;;5044982;28;20215;-64
2022/05/20 10:57:58;;;;;;;83.87;44.67;;;19.40;99.90;;;;;;5005514;28;20678;-64
2022/05/20 11:00:36;;;;;;;87.57;45.30;;;19.20;99.90;;;;;;5051365;28;20274;-64
2022/05/20 11:03:24;;;;;;;86.77;48.33;;;19.10;99.90;;;;;;5048937;28;20290;-65
2022/05/20 11:06:29;;;;;;;92.03;50.17;;;19.00;99.90;;;;;;5045467;28;20189;-65
2022/05/20 11:09:04;;;;;;;92.03;49.83;;;18.90;99.90;;;;;;5011714;28;20214;-65
2022/05/20 11:11:57;;;;;;;115.17;56.83;;;19.00;99.90;;;;;;5046854;28;20193;-65
2022/05/20 11:14:54;;;;;;;107.23;54.37;;;19.10;99.90;;;;;;5079281;28;20725;-65
2022/05/20 11:17:49;;;;;;;102.23;54.03;;;19.00;99.90;;;;;;5044142;28;20240;-65
2022/05/20 11:20:30;;;;;;;110.60;57.67;;;19.10;99.90;;;;;;5044499;28;20213;-65
2022/05/20 11:23:21;;;;;;;108.67;57.80;;;19.30;99.90;;;;;;5049503;28;20207;-65
2022/05/20 11:26:14;;;;;;;99.80;53.37;;;19.30;99.90;;;;;;5047128;28;20193;-65
2022/05/20 11:29:00;;;;;;;103.63;53.17;;;19.30;99.90;;;;;;5057489;28;20247;-64
2022/05/20 11:31:43;;;;;;;102.43;52.83;;;19.30;99.90;;;;;;5045281;28;20193;-65
2022/05/20 11:34:38;;;;;;;101.67;53.20;;;19.30;99.90;;;;;;5048506;28;20240;-65
2022/05/20 11:37:24;;;;;;;93.70;49.03;;;19.40;99.90;;;;;;5049503;28;20220;-65
2022/05/20 11:40:17;;;;;;;90.20;48.97;;;19.40;99.90;;;;;;5050464;28;20204;-64
2022/05/20 11:43:10;;;;;;;98.10;48.83;;;19.20;99.90;;;;;;5047711;28;20197;-65
2022/05/20 11:45:50;;;;;;;97.93;50.63;;;19.20;99.90;;;;;;5050212;28;20256;-65
2022/05/20 11:48:55;;;;;;;90.83;49.07;;;19.30;99.90;;;;;;5080551;28;20203;-64
2022/05/20 11:51:52;;;;;;;86.40;46.97;;;19.40;99.90;;;;;;5038432;28;20205;-64
2022/05/20 11:54:27;;;;;;;79.30;46.93;;;19.50;99.90;;;;;;5044938;28;20292;-65
2022/05/20 11:57:02;;;;;;;85.23;47.83;;;19.60;99.90;;;;;;5050272;28;20315;-65
2022/05/20 11:59:35;;;;;;;91.70;48.77;;;19.60;99.90;;;;;;5079766;28;20245;-64
2022/05/20 12:02:10;;;;;;;85.77;47.20;;;19.70;99.90;;;;;;5050715;28;20254;-64
2022/05/20 12:04:41;;;;;;;83.57;48.70;;;20.10;99.90;;;;;;5052194;28;20667;-65
2022/05/20 12:07:14;;;;;;;76.83;46.60;;;20.50;99.90;;;;;;5052648;28;20192;-65
2022/05/20 12:09:44;;;;;;;61.17;38.60;;;20.70;99.90;;;;;;5049870;28;20197;-64
2022/05/20 12:12:24;;;;;;;59.37;37.63;;;20.80;99.90;;;;;;5049796;28;20188;-65
2022/05/20 12:15:43;;;;;;;62.53;38.87;;;20.90;99.90;;;;;;5050905;28;20205;-65
2022/05/20 12:24:13;;;;;;;51.77;34.93;;;21.30;99.90;;;;;;5046403;28;20327;-64
2022/05/20 12:26:48;;;;;;;48.40;29.80;;;21.60;99.90;;;;;;5045985;28;20199;-64
2022/05/20 12:29:59;;;;;;;41.40;28.13;;;21.40;99.90;;;;;;5050949;28;20226;-65
2022/05/20 12:32:44;;;;;;;45.67;29.40;;;21.20;99.90;;;;;;5023828;28;20632;-64
2022/05/20 12:35:20;;;;;;;49.43;29.40;;;21.00;99.90;;;;;;5025001;28;20225;-64
2022/05/20 12:38:22;;;;;;;47.27;27.77;;;20.70;99.90;;;;;;5047826;28;20231;-64
2022/05/20 12:40:57;;;;;;;47.57;27.80;;;20.50;99.90;;;;;;5051374;28;20192;-64
2022/05/20 12:43:49;;;;;;;45.30;29.33;;;20.30;99.90;;;;;;5048589;28;20201;-64
2022/05/20 12:46:52;;;;;;;56.37;34.60;;;20.20;99.90;;;;;;5047533;28;20188;-65
2022/05/20 12:49:23;;;;;;;58.30;36.57;;;20.20;99.90;;;;;;5048670;28;20728;-66
2022/05/20 12:51:54;;;;;;;66.40;38.43;;;20.10;99.90;;;;;;5051292;28;20219;-65
2022/05/20 12:54:26;;;;;;;70.03;38.70;;;20.00;99.90;;;;;;5049940;28;20600;-65
2022/05/20 12:57:05;;;;;;;73.40;40.33;;;19.90;99.90;;;;;;5049881;28;20229;-65
2022/05/20 12:59:34;;;;;;;76.90;43.30;;;19.80;99.90;;;;;;5054912;28;20283;-65
2022/05/20 13:02:09;;;;;;;74.13;41.33;;;19.70;99.90;;;;;;5046209;28;20213;-65
2022/05/20 13:04:42;;;;;;;89.13;45.30;;;19.60;99.90;;;;;;5049670;28;20208;-65
2022/05/20 13:07:16;;;;;;;81.30;45.23;;;19.60;99.90;;;;;;5049776;28;20204;-65
2022/05/20 13:09:47;;;;;;;80.73;45.17;;;19.50;99.90;;;;;;5046821;28;20215;-65
2022/05/20 13:12:20;;;;;;;85.83;48.00;;;19.50;99.90;;;;;;5047167;28;20205;-65
2022/05/20 13:14:58;;;;;;;90.27;47.13;;;19.40;99.90;;;;;;5049961;28;20556;-65
2022/05/20 13:17:27;;;;;;;85.83;47.63;;;19.30;99.90;;;;;;5049244;28;20227;-65
2022/05/20 13:19:56;;;;;;;85.87;46.20;;;19.20;99.90;;;;;;5047881;28;20648;-65
2022/05/20 13:22:26;;;;;;;90.33;48.80;;;19.20;99.90;;;;;;5046973;28;20276;-65
2022/05/20 13:24:58;;;;;;;72.33;45.87;;;19.10;99.90;;;;;;5050177;28;20250;-65
2022/05/20 13:27:28;;;;;;;72.77;44.43;;;18.70;99.90;;;;;;5047096;28;20189;-65
2022/05/20 13:30:09;;;;;;;49.37;34.87;;;18.40;99.90;;;;;;5047624;28;20211;-65
2022/05/20 13:32:38;;;;;;;45.17;31.63;;;17.90;99.90;;;;;;5049081;28;20283;-66
2022/05/20 13:35:07;;;;;;;27.17;21.00;;;17.50;99.90;;;;;;5044176;28;20237;-66